sensor_id;sensor_type;location;lat;lon;timestamp;temperature;humidity
20005;DHT22;69160;45.498;-73.582;2023-04-19T00:01:10;21.90;59.40
20005;DHT22;69160;45.498;-73.582;2023-04-19T00:03:37;21.90;59.40
20005;DHT22;69160;45.498;-73.582;2023-04-19T00:06:03;21.90;59.90
20005;DHT22;69160;45.498;-73.582;2023-04-19T00:08:30;22.10;61.10
20005;DHT22;69160;45.498;-73.582;2023-04-19T00:10:56;22.20;59.70
20005;DHT22;69160;45.498;-73.582;2023-04-19T00:13:22;22.10;60.70
20005;DHT22;69160;45.498;-73.582;2023-04-19T00:15:48;22.20;62.00
20005;DHT22;69160;45.498;-73.582;2023-04-19T00:18:14;22.20;62.10
20005;DHT22;69160;45.498;-73.582;2023-04-19T00:20:40;22.40;61.80
20005;DHT22;69160;45.498;-73.582;2023-04-19T00:23:07;22.40;63.00
20005;DHT22;69160;45.498;-73.582;2023-04-19T00:25:33;22.40;63.30
20005;DHT22;69160;45.498;-73.582;2023-04-19T00:27:59;22.40;63.80
20005;DHT22;69160;45.498;-73.582;2023-04-19T00:30:26;22.40;62.60
20005;DHT22;69160;45.498;-73.582;2023-04-19T00:32:52;22.30;63.10
20005;DHT22;69160;45.498;-73.582;2023-04-19T00:35:18;22.30;64.00
20005;DHT22;69160;45.498;-73.582;2023-04-19T00:37:44;22.30;63.20
20005;DHT22;69160;45.498;-73.582;2023-04-19T00:40:10;22.20;62.00
20005;DHT22;69160;45.498;-73.582;2023-04-19T00:42:37;22.20;61.00
20005;DHT22;69160;45.498;-73.582;2023-04-19T00:45:03;22.10;61.20
20005;DHT22;69160;45.498;-73.582;2023-04-19T00:47:29;22.20;61.60
20005;DHT22;69160;45.498;-73.582;2023-04-19T09:13:04;21.30;55.20
20005;DHT22;69160;45.498;-73.582;2023-04-19T09:15:38;21.40;54.00
20005;DHT22;69160;45.498;-73.582;2023-04-19T09:18:07;21.40;53.30
20005;DHT22;69160;45.498;-73.582;2023-04-19T09:20:38;21.40;53.50
20005;DHT22;69160;45.498;-73.582;2023-04-19T09:23:07;21.40;53.60
20005;DHT22;69160;45.498;-73.582;2023-04-19T09:25:34;21.40;53.30
20005;DHT22;69160;45.498;-73.582;2023-04-19T09:28:11;21.40;53.30
20005;DHT22;69160;45.498;-73.582;2023-04-19T09:30:38;21.50;53.50
20005;DHT22;69160;45.498;-73.582;2023-04-19T09:33:05;21.50;53.30
20005;DHT22;69160;45.498;-73.582;2023-04-19T09:35:43;21.50;53.20
20005;DHT22;69160;45.498;-73.582;2023-04-19T09:38:12;21.50;53.30
20005;DHT22;69160;45.498;-73.582;2023-04-19T09:40:39;21.50;53.10
20005;DHT22;69160;45.498;-73.582;2023-04-19T09:43:06;21.50;53.30
20005;DHT22;69160;45.498;-73.582;2023-04-19T09:45:45;21.50;53.10
20005;DHT22;69160;45.498;-73.582;2023-04-19T09:48:13;21.50;53.10
20005;DHT22;69160;45.498;-73.582;2023-04-19T09:51:06;21.50;53.10
20005;DHT22;69160;45.498;-73.582;2023-04-19T09:53:32;21.50;53.10
20005;DHT22;69160;45.498;-73.582;2023-04-19T09:55:58;21.50;53.00
20005;DHT22;69160;45.498;-73.582;2023-04-19T09:58:26;21.50;52.90
20005;DHT22;69160;45.498;-73.582;2023-04-19T10:00:53;21.50;53.00
20005;DHT22;69160;45.498;-73.582;2023-04-19T10:03:21;21.60;53.10
20005;DHT22;69160;45.498;-73.582;2023-04-19T10:05:49;21.50;52.90
20005;DHT22;69160;45.498;-73.582;2023-04-19T10:08:16;21.50;53.00
20005;DHT22;69160;45.498;-73.582;2023-04-19T10:10:45;21.50;52.80
20005;DHT22;69160;45.498;-73.582;2023-04-19T10:13:12;21.50;52.90
20005;DHT22;69160;45.498;-73.582;2023-04-19T10:15:41;21.50;53.00
20005;DHT22;69160;45.498;-73.582;2023-04-19T10:18:11;21.60;53.00
20005;DHT22;69160;45.498;-73.582;2023-04-19T10:20:57;21.50;52.90
20005;DHT22;69160;45.498;-73.582;2023-04-19T10:23:24;21.50;52.80
20005;DHT22;69160;45.498;-73.582;2023-04-19T10:25:55;21.50;52.90
20005;DHT22;69160;45.498;-73.582;2023-04-19T10:28:22;21.50;52.80
20005;DHT22;69160;45.498;-73.582;2023-04-19T10:31:02;21.50;52.90
20005;DHT22;69160;45.498;-73.582;2023-04-19T10:33:36;21.50;53.00
20005;DHT22;69160;45.498;-73.582;2023-04-19T10:36:02;21.50;52.80
20005;DHT22;69160;45.498;-73.582;2023-04-19T10:38:55;21.60;53.10
20005;DHT22;69160;45.498;-73.582;2023-04-19T10:41:21;21.60;53.00
20005;DHT22;69160;45.498;-73.582;2023-04-19T10:44:08;21.60;52.90
20005;DHT22;69160;45.498;-73.582;2023-04-19T10:46:36;21.60;53.00
20005;DHT22;69160;45.498;-73.582;2023-04-19T10:49:05;21.50;52.80
20005;DHT22;69160;45.498;-73.582;2023-04-19T10:51:36;21.50;52.80
20005;DHT22;69160;45.498;-73.582;2023-04-19T10:54:31;21.50;52.90
20005;DHT22;69160;45.498;-73.582;2023-04-19T10:57:00;21.60;52.90
20005;DHT22;69160;45.498;-73.582;2023-04-19T10:59:37;21.60;53.00
20005;DHT22;69160;45.498;-73.582;2023-04-19T11:02:25;21.60;52.90
20005;DHT22;69160;45.498;-73.582;2023-04-19T11:07:18;21.50;52.90
20005;DHT22;69160;45.498;-73.582;2023-04-19T11:09:47;21.50;52.80
20005;DHT22;69160;45.498;-73.582;2023-04-19T11:12:16;21.50;52.70
20005;DHT22;69160;45.498;-73.582;2023-04-19T11:14:47;21.60;52.80
20005;DHT22;69160;45.498;-73.582;2023-04-19T11:17:21;21.50;52.70
20005;DHT22;69160;45.498;-73.582;2023-04-19T11:19:55;21.50;52.70
20005;DHT22;69160;45.498;-73.582;2023-04-19T11:22:45;21.60;52.80
20005;DHT22;69160;45.498;-73.582;2023-04-19T11:25:13;21.60;52.90
20005;DHT22;69160;45.498;-73.582;2023-04-19T11:27:43;21.50;52.70
20005;DHT22;69160;45.498;-73.582;2023-04-19T11:30:15;21.60;52.80
20005;DHT22;69160;45.498;-73.582;2023-04-19T11:32:46;21.60;53.30
20005;DHT22;69160;45.498;-73.582;2023-04-19T11:35:13;21.60;52.80
20005;DHT22;69160;45.498;-73.582;2023-04-19T11:37:39;21.60;52.90
20005;DHT22;69160;45.498;-73.582;2023-04-19T11:40:06;21.60;52.80
20005;DHT22;69160;45.498;-73.582;2023-04-19T11:42:34;21.60;52.70
20005;DHT22;69160;45.498;-73.582;2023-04-19T11:45:00;21.60;52.80
20005;DHT22;69160;45.498;-73.582;2023-04-19T11:47:27;21.60;52.70
20005;DHT22;69160;45.498;-73.582;2023-04-19T11:49:56;21.60;52.80
20005;DHT22;69160;45.498;-73.582;2023-04-19T11:52:24;21.60;52.80
20005;DHT22;69160;45.498;-73.582;2023-04-19T11:54:52;21.60;52.70
20005;DHT22;69160;45.498;-73.582;2023-04-19T11:57:30;21.60;53.00
20005;DHT22;69160;45.498;-73.582;2023-04-19T12:00:07;21.60;52.80
20005;DHT22;69160;45.498;-73.582;2023-04-19T12:02:43;21.60;52.70
20005;DHT22;69160;45.498;-73.582;2023-04-19T12:05:13;21.70;52.80
20005;DHT22;69160;45.498;-73.582;2023-04-19T12:10:29;21.70;53.00
20005;DHT22;69160;45.498;-73.582;2023-04-19T12:12:55;21.70;52.90
20005;DHT22;69160;45.498;-73.582;2023-04-19T12:15:22;21.70;52.80
20005;DHT22;69160;45.498;-73.582;2023-04-19T12:17:59;21.70;52.70
20005;DHT22;69160;45.498;-73.582;2023-04-19T12:20:34;21.70;52.70
20005;DHT22;69160;45.498;-73.582;2023-04-19T12:23:00;21.70;52.70
20005;DHT22;69160;45.498;-73.582;2023-04-19T12:25:29;21.70;52.90
20005;DHT22;69160;45.498;-73.582;2023-04-19T12:27:56;21.70;52.80
20005;DHT22;69160;45.498;-73.582;2023-04-19T12:30:23;21.60;52.70
20005;DHT22;69160;45.498;-73.582;2023-04-19T12:32:49;21.70;52.70
20005;DHT22;69160;45.498;-73.582;2023-04-19T12:35:17;21.70;52.70
20005;DHT22;69160;45.498;-73.582;2023-04-19T12:37:43;21.70;52.70
20005;DHT22;69160;45.498;-73.582;2023-04-19T12:40:10;21.70;52.80
20005;DHT22;69160;45.498;-73.582;2023-04-19T12:42:36;21.70;52.70
20005;DHT22;69160;45.498;-73.582;2023-04-19T12:45:02;21.70;52.80
20005;DHT22;69160;45.498;-73.582;2023-04-19T12:47:29;21.70;52.80
20005;DHT22;69160;45.498;-73.582;2023-04-19T12:49:55;21.70;52.70
20005;DHT22;69160;45.498;-73.582;2023-04-19T12:52:22;21.70;52.70
20005;DHT22;69160;45.498;-73.582;2023-04-19T12:54:49;21.80;52.70
20005;DHT22;69160;45.498;-73.582;2023-04-19T12:57:15;21.80;52.80
20005;DHT22;69160;45.498;-73.582;2023-04-19T12:59:41;21.80;53.20
20005;DHT22;69160;45.498;-73.582;2023-04-19T13:02:07;21.80;52.80
20005;DHT22;69160;45.498;-73.582;2023-04-19T13:04:34;21.80;52.50
20005;DHT22;69160;45.498;-73.582;2023-04-19T13:07:00;21.70;52.40
20005;DHT22;69160;45.498;-73.582;2023-04-19T13:09:27;21.70;52.40
20005;DHT22;69160;45.498;-73.582;2023-04-19T13:11:57;21.70;52.40
20005;DHT22;69160;45.498;-73.582;2023-04-19T13:14:25;21.70;52.70
20005;DHT22;69160;45.498;-73.582;2023-04-19T13:16:51;21.80;52.60
20005;DHT22;69160;45.498;-73.582;2023-04-19T13:19:17;21.80;52.60
20005;DHT22;69160;45.498;-73.582;2023-04-19T13:21:44;21.70;52.30
20005;DHT22;69160;45.498;-73.582;2023-04-19T13:24:10;21.70;52.40
20005;DHT22;69160;45.498;-73.582;2023-04-19T13:26:36;21.70;52.30
20005;DHT22;69160;45.498;-73.582;2023-04-19T13:29:02;21.80;52.50
20005;DHT22;69160;45.498;-73.582;2023-04-19T13:31:29;21.80;52.30
20005;DHT22;69160;45.498;-73.582;2023-04-19T13:33:55;21.70;52.30
20005;DHT22;69160;45.498;-73.582;2023-04-19T13:36:22;21.80;52.80
20005;DHT22;69160;45.498;-73.582;2023-04-19T13:38:48;21.80;52.20
20005;DHT22;69160;45.498;-73.582;2023-04-19T13:41:15;21.80;52.20
20005;DHT22;69160;45.498;-73.582;2023-04-19T13:43:41;21.80;52.00
20005;DHT22;69160;45.498;-73.582;2023-04-19T13:46:07;21.80;52.00
20005;DHT22;69160;45.498;-73.582;2023-04-19T13:48:33;21.80;52.10
20005;DHT22;69160;45.498;-73.582;2023-04-19T13:50:59;21.70;52.00
20005;DHT22;69160;45.498;-73.582;2023-04-19T13:53:26;21.80;52.20
20005;DHT22;69160;45.498;-73.582;2023-04-19T13:55:54;21.80;52.10
20005;DHT22;69160;45.498;-73.582;2023-04-19T13:58:20;21.80;51.90
20005;DHT22;69160;45.498;-73.582;2023-04-19T14:00:47;21.80;52.10
20005;DHT22;69160;45.498;-73.582;2023-04-19T14:03:13;21.70;51.80
20005;DHT22;69160;45.498;-73.582;2023-04-19T14:05:39;21.70;51.80
20005;DHT22;69160;45.498;-73.582;2023-04-19T14:08:05;21.70;52.00
20005;DHT22;69160;45.498;-73.582;2023-04-19T14:10:32;21.80;52.00
20005;DHT22;69160;45.498;-73.582;2023-04-19T14:12:59;21.80;52.00
20005;DHT22;69160;45.498;-73.582;2023-04-19T14:15:25;21.80;52.00
20005;DHT22;69160;45.498;-73.582;2023-04-19T14:17:51;21.80;52.00
20005;DHT22;69160;45.498;-73.582;2023-04-19T14:20:17;21.80;51.90
20005;DHT22;69160;45.498;-73.582;2023-04-19T14:22:45;21.70;51.80
20005;DHT22;69160;45.498;-73.582;2023-04-19T14:25:11;21.80;51.90
20005;DHT22;69160;45.498;-73.582;2023-04-19T14:27:40;21.80;51.90
20005;DHT22;69160;45.498;-73.582;2023-04-19T14:30:07;21.70;51.70
20005;DHT22;69160;45.498;-73.582;2023-04-19T14:32:33;21.70;51.80
20005;DHT22;69160;45.498;-73.582;2023-04-19T14:34:59;21.70;51.60
20005;DHT22;69160;45.498;-73.582;2023-04-19T14:37:27;21.70;51.70
20005;DHT22;69160;45.498;-73.582;2023-04-19T14:39:53;21.70;51.70
20005;DHT22;69160;45.498;-73.582;2023-04-19T14:42:19;21.70;51.70
20005;DHT22;69160;45.498;-73.582;2023-04-19T14:44:46;21.70;51.60
20005;DHT22;69160;45.498;-73.582;2023-04-19T14:47:12;21.70;51.60
20005;DHT22;69160;45.498;-73.582;2023-04-19T14:49:39;21.70;51.50
20005;DHT22;69160;45.498;-73.582;2023-04-19T14:52:06;21.70;51.70
20005;DHT22;69160;45.498;-73.582;2023-04-19T14:54:33;21.70;51.50
20005;DHT22;69160;45.498;-73.582;2023-04-19T14:56:59;21.60;51.40
20005;DHT22;69160;45.498;-73.582;2023-04-19T14:59:26;21.70;51.70
20005;DHT22;69160;45.498;-73.582;2023-04-19T15:01:52;21.70;51.50
20005;DHT22;69160;45.498;-73.582;2023-04-19T15:04:18;21.60;51.50
20005;DHT22;69160;45.498;-73.582;2023-04-19T15:06:44;21.60;51.40
20005;DHT22;69160;45.498;-73.582;2023-04-19T15:09:10;21.60;51.50
20005;DHT22;69160;45.498;-73.582;2023-04-19T15:11:37;21.60;51.50
20005;DHT22;69160;45.498;-73.582;2023-04-19T15:14:03;21.70;51.50
20005;DHT22;69160;45.498;-73.582;2023-04-19T15:16:30;21.70;51.50
20005;DHT22;69160;45.498;-73.582;2023-04-19T15:18:58;21.70;51.50
20005;DHT22;69160;45.498;-73.582;2023-04-19T15:21:24;21.70;51.50
20005;DHT22;69160;45.498;-73.582;2023-04-19T15:23:50;21.60;52.00
20005;DHT22;69160;45.498;-73.582;2023-04-19T15:26:16;21.60;51.50
20005;DHT22;69160;45.498;-73.582;2023-04-19T15:28:42;21.60;51.40
20005;DHT22;69160;45.498;-73.582;2023-04-19T15:31:09;21.60;51.70
20005;DHT22;69160;45.498;-73.582;2023-04-19T15:33:36;21.70;51.50
20005;DHT22;69160;45.498;-73.582;2023-04-19T15:36:02;21.60;51.40
20005;DHT22;69160;45.498;-73.582;2023-04-19T15:38:30;21.60;51.40
20005;DHT22;69160;45.498;-73.582;2023-04-19T15:40:58;21.60;51.40
20005;DHT22;69160;45.498;-73.582;2023-04-19T15:43:25;21.70;51.50
20005;DHT22;69160;45.498;-73.582;2023-04-19T15:45:52;21.70;51.50
20005;DHT22;69160;45.498;-73.582;2023-04-19T15:48:18;21.70;51.50
20005;DHT22;69160;45.498;-73.582;2023-04-19T15:50:47;21.70;51.40
20005;DHT22;69160;45.498;-73.582;2023-04-19T15:53:13;21.70;51.40
20005;DHT22;69160;45.498;-73.582;2023-04-19T15:55:40;21.70;51.40
20005;DHT22;69160;45.498;-73.582;2023-04-19T15:58:06;21.70;51.40
20005;DHT22;69160;45.498;-73.582;2023-04-19T16:00:32;21.70;51.40
20005;DHT22;69160;45.498;-73.582;2023-04-19T16:02:58;21.70;51.50
20005;DHT22;69160;45.498;-73.582;2023-04-19T16:05:25;21.70;51.30
20005;DHT22;69160;45.498;-73.582;2023-04-19T16:08:02;21.70;51.50
20005;DHT22;69160;45.498;-73.582;2023-04-19T16:10:28;21.70;51.40
20005;DHT22;69160;45.498;-73.582;2023-04-19T16:12:55;21.70;51.50
20005;DHT22;69160;45.498;-73.582;2023-04-19T16:15:21;21.70;51.40
20005;DHT22;69160;45.498;-73.582;2023-04-19T16:17:47;21.70;51.30
20005;DHT22;69160;45.498;-73.582;2023-04-19T16:20:13;21.70;51.40
20005;DHT22;69160;45.498;-73.582;2023-04-19T16:22:40;21.70;51.40
20005;DHT22;69160;45.498;-73.582;2023-04-19T16:25:06;21.70;51.60
20005;DHT22;69160;45.498;-73.582;2023-04-19T16:27:34;21.70;51.40
20005;DHT22;69160;45.498;-73.582;2023-04-19T16:30:01;21.80;51.50
20005;DHT22;69160;45.498;-73.582;2023-04-19T16:32:27;21.80;51.50
20005;DHT22;69160;45.498;-73.582;2023-04-19T16:34:53;21.70;51.40
20005;DHT22;69160;45.498;-73.582;2023-04-19T16:37:19;21.80;51.50
20005;DHT22;69160;45.498;-73.582;2023-04-19T16:39:46;21.80;51.60
20005;DHT22;69160;45.498;-73.582;2023-04-19T16:42:12;21.80;51.60
20005;DHT22;69160;45.498;-73.582;2023-04-19T16:44:38;21.80;51.50
20005;DHT22;69160;45.498;-73.582;2023-04-19T16:47:04;21.80;51.60
20005;DHT22;69160;45.498;-73.582;2023-04-19T16:49:30;21.80;51.50
20005;DHT22;69160;45.498;-73.582;2023-04-19T16:51:56;21.80;51.50
20005;DHT22;69160;45.498;-73.582;2023-04-19T16:54:23;21.80;51.50
20005;DHT22;69160;45.498;-73.582;2023-04-19T16:56:49;21.80;51.60
20005;DHT22;69160;45.498;-73.582;2023-04-19T16:59:15;21.80;51.60
20005;DHT22;69160;45.498;-73.582;2023-04-19T17:01:41;21.70;51.40
20005;DHT22;69160;45.498;-73.582;2023-04-19T17:04:09;21.80;51.50
20005;DHT22;69160;45.498;-73.582;2023-04-19T17:06:35;21.80;51.60
20005;DHT22;69160;45.498;-73.582;2023-04-19T17:09:02;21.80;51.50
20005;DHT22;69160;45.498;-73.582;2023-04-19T17:11:30;21.80;51.50
20005;DHT22;69160;45.498;-73.582;2023-04-19T17:13:58;21.80;51.40
20005;DHT22;69160;45.498;-73.582;2023-04-19T17:16:24;21.80;51.50
20005;DHT22;69160;45.498;-73.582;2023-04-19T17:18:55;21.80;51.30
20005;DHT22;69160;45.498;-73.582;2023-04-19T17:21:21;21.80;51.40
20005;DHT22;69160;45.498;-73.582;2023-04-19T17:23:47;21.80;51.50
20005;DHT22;69160;45.498;-73.582;2023-04-19T17:26:14;21.80;51.40
20005;DHT22;69160;45.498;-73.582;2023-04-19T17:28:43;21.80;51.40
20005;DHT22;69160;45.498;-73.582;2023-04-19T17:31:09;21.80;51.50
20005;DHT22;69160;45.498;-73.582;2023-04-19T17:33:35;21.80;51.40
20005;DHT22;69160;45.498;-73.582;2023-04-19T17:36:04;21.80;51.30
20005;DHT22;69160;45.498;-73.582;2023-04-19T17:38:31;21.80;51.40
20005;DHT22;69160;45.498;-73.582;2023-04-19T17:40:57;21.80;51.40
20005;DHT22;69160;45.498;-73.582;2023-04-19T17:43:24;21.80;51.50
20005;DHT22;69160;45.498;-73.582;2023-04-19T17:45:51;21.80;51.50
20005;DHT22;69160;45.498;-73.582;2023-04-19T17:48:17;21.80;51.30
20005;DHT22;69160;45.498;-73.582;2023-04-19T17:50:43;21.80;51.30
20005;DHT22;69160;45.498;-73.582;2023-04-19T17:53:09;21.80;51.40
20005;DHT22;69160;45.498;-73.582;2023-04-19T17:55:35;21.80;51.20
20005;DHT22;69160;45.498;-73.582;2023-04-19T17:58:01;21.70;51.20
20005;DHT22;69160;45.498;-73.582;2023-04-19T18:00:27;21.80;51.30
20005;DHT22;69160;45.498;-73.582;2023-04-19T18:02:54;21.80;51.20
20005;DHT22;69160;45.498;-73.582;2023-04-19T18:05:20;21.80;51.40
20005;DHT22;69160;45.498;-73.582;2023-04-19T18:07:46;21.80;51.20
20005;DHT22;69160;45.498;-73.582;2023-04-19T18:10:12;21.70;51.20
20005;DHT22;69160;45.498;-73.582;2023-04-19T18:12:39;21.80;51.20
20005;DHT22;69160;45.498;-73.582;2023-04-19T18:15:06;21.70;51.20
20005;DHT22;69160;45.498;-73.582;2023-04-19T18:17:32;21.70;51.10
20005;DHT22;69160;45.498;-73.582;2023-04-19T18:19:58;21.80;51.30
20005;DHT22;69160;45.498;-73.582;2023-04-19T18:22:24;21.80;51.10
20005;DHT22;69160;45.498;-73.582;2023-04-19T18:24:51;21.80;51.20
20005;DHT22;69160;45.498;-73.582;2023-04-19T18:27:18;21.70;51.10
20005;DHT22;69160;45.498;-73.582;2023-04-19T18:29:44;21.70;51.10
20005;DHT22;69160;45.498;-73.582;2023-04-19T18:32:10;21.70;51.00
20005;DHT22;69160;45.498;-73.582;2023-04-19T18:34:36;21.70;51.00
20005;DHT22;69160;45.498;-73.582;2023-04-19T18:37:15;21.70;51.10
20005;DHT22;69160;45.498;-73.582;2023-04-19T18:39:42;21.70;51.10
20005;DHT22;69160;45.498;-73.582;2023-04-19T18:42:08;21.70;51.10
20005;DHT22;69160;45.498;-73.582;2023-04-19T18:44:35;21.70;51.00
20005;DHT22;69160;45.498;-73.582;2023-04-19T18:47:02;21.70;51.00
20005;DHT22;69160;45.498;-73.582;2023-04-19T18:49:29;21.60;50.80
20005;DHT22;69160;45.498;-73.582;2023-04-19T18:51:55;21.70;51.00
20005;DHT22;69160;45.498;-73.582;2023-04-19T18:54:21;21.70;50.80
20005;DHT22;69160;45.498;-73.582;2023-04-19T18:56:50;21.70;50.90
20005;DHT22;69160;45.498;-73.582;2023-04-19T18:59:16;21.70;51.00
20005;DHT22;69160;45.498;-73.582;2023-04-19T19:01:43;21.70;50.90
20005;DHT22;69160;45.498;-73.582;2023-04-19T19:04:19;21.70;50.80
20005;DHT22;69160;45.498;-73.582;2023-04-19T19:06:46;21.60;50.80
20005;DHT22;69160;45.498;-73.582;2023-04-19T19:09:12;21.60;50.80
20005;DHT22;69160;45.498;-73.582;2023-04-19T19:11:40;21.60;50.70
20005;DHT22;69160;45.498;-73.582;2023-04-19T19:14:06;21.70;50.70
20005;DHT22;69160;45.498;-73.582;2023-04-19T19:16:32;21.70;50.70
20005;DHT22;69160;45.498;-73.582;2023-04-19T19:18:58;21.70;50.50
20005;DHT22;69160;45.498;-73.582;2023-04-19T19:21:25;21.60;50.40
20005;DHT22;69160;45.498;-73.582;2023-04-19T19:23:52;21.60;50.40
20005;DHT22;69160;45.498;-73.582;2023-04-19T19:26:23;21.70;50.50
20005;DHT22;69160;45.498;-73.582;2023-04-19T19:28:49;21.60;50.30
20005;DHT22;69160;45.498;-73.582;2023-04-19T19:31:15;21.60;50.50
20005;DHT22;69160;45.498;-73.582;2023-04-19T19:33:41;21.60;50.40
20005;DHT22;69160;45.498;-73.582;2023-04-19T19:36:08;21.60;50.50
20005;DHT22;69160;45.498;-73.582;2023-04-19T19:38:37;21.60;50.40
20005;DHT22;69160;45.498;-73.582;2023-04-19T19:41:06;21.60;50.30
20005;DHT22;69160;45.498;-73.582;2023-04-19T19:43:32;21.60;50.20
20005;DHT22;69160;45.498;-73.582;2023-04-19T19:46:00;21.60;50.20
20005;DHT22;69160;45.498;-73.582;2023-04-19T19:48:26;21.60;50.20
20005;DHT22;69160;45.498;-73.582;2023-04-19T19:50:53;21.50;50.20
20005;DHT22;69160;45.498;-73.582;2023-04-19T19:53:19;21.60;50.20
20005;DHT22;69160;45.498;-73.582;2023-04-19T19:55:45;21.60;50.20
20005;DHT22;69160;45.498;-73.582;2023-04-19T19:58:11;21.60;50.20
20005;DHT22;69160;45.498;-73.582;2023-04-19T20:00:37;21.60;50.20
20005;DHT22;69160;45.498;-73.582;2023-04-19T20:03:04;21.60;50.20
20005;DHT22;69160;45.498;-73.582;2023-04-19T20:05:30;21.50;50.10
20005;DHT22;69160;45.498;-73.582;2023-04-19T20:08:07;21.60;50.20
20005;DHT22;69160;45.498;-73.582;2023-04-19T20:10:33;21.60;50.10
20005;DHT22;69160;45.498;-73.582;2023-04-19T20:12:59;21.60;50.10
20005;DHT22;69160;45.498;-73.582;2023-04-19T20:15:26;21.60;50.00
20005;DHT22;69160;45.498;-73.582;2023-04-19T20:17:52;21.60;50.00
20005;DHT22;69160;45.498;-73.582;2023-04-19T20:20:19;21.60;50.00
20005;DHT22;69160;45.498;-73.582;2023-04-19T20:22:45;21.70;50.40
20005;DHT22;69160;45.498;-73.582;2023-04-19T20:25:12;21.70;50.10
20005;DHT22;69160;45.498;-73.582;2023-04-19T20:27:39;21.70;50.10
20005;DHT22;69160;45.498;-73.582;2023-04-19T20:30:06;21.70;50.10
20005;DHT22;69160;45.498;-73.582;2023-04-19T20:32:33;21.70;50.00
20005;DHT22;69160;45.498;-73.582;2023-04-19T20:35:04;21.70;50.10
20005;DHT22;69160;45.498;-73.582;2023-04-19T20:37:37;21.70;50.00
20005;DHT22;69160;45.498;-73.582;2023-04-19T20:40:09;21.60;50.00
20005;DHT22;69160;45.498;-73.582;2023-04-19T20:42:37;21.70;50.20
20005;DHT22;69160;45.498;-73.582;2023-04-19T20:45:04;21.60;50.50
20005;DHT22;69160;45.498;-73.582;2023-04-19T20:47:31;21.70;50.10
20005;DHT22;69160;45.498;-73.582;2023-04-19T20:49:58;21.70;50.10
20005;DHT22;69160;45.498;-73.582;2023-04-19T20:52:24;21.70;50.00
20005;DHT22;69160;45.498;-73.582;2023-04-19T20:54:50;21.70;50.10
20005;DHT22;69160;45.498;-73.582;2023-04-19T20:57:17;21.70;50.20
20005;DHT22;69160;45.498;-73.582;2023-04-19T20:59:43;21.70;50.10
20005;DHT22;69160;45.498;-73.582;2023-04-19T21:02:09;21.70;50.10
20005;DHT22;69160;45.498;-73.582;2023-04-19T21:04:35;21.70;50.20
20005;DHT22;69160;45.498;-73.582;2023-04-19T21:07:02;21.70;50.10
20005;DHT22;69160;45.498;-73.582;2023-04-19T21:09:28;21.70;50.10
20005;DHT22;69160;45.498;-73.582;2023-04-19T21:11:54;21.70;50.10
20005;DHT22;69160;45.498;-73.582;2023-04-19T21:14:20;21.80;50.10
20005;DHT22;69160;45.498;-73.582;2023-04-19T21:16:47;21.70;49.90
20005;DHT22;69160;45.498;-73.582;2023-04-19T21:19:13;21.70;49.90
20005;DHT22;69160;45.498;-73.582;2023-04-19T21:21:40;21.70;49.80
20005;DHT22;69160;45.498;-73.582;2023-04-19T21:24:06;21.70;50.00
20005;DHT22;69160;45.498;-73.582;2023-04-19T21:26:33;21.80;49.90
20005;DHT22;69160;45.498;-73.582;2023-04-19T21:28:59;21.80;49.80
20005;DHT22;69160;45.498;-73.582;2023-04-19T21:31:25;21.70;49.80
20005;DHT22;69160;45.498;-73.582;2023-04-19T21:33:51;21.80;50.10
20005;DHT22;69160;45.498;-73.582;2023-04-19T21:36:18;21.80;50.00
20005;DHT22;69160;45.498;-73.582;2023-04-19T21:38:44;21.80;49.80
20005;DHT22;69160;45.498;-73.582;2023-04-19T21:41:10;21.70;49.60
20005;DHT22;69160;45.498;-73.582;2023-04-19T21:43:36;21.70;49.60
20005;DHT22;69160;45.498;-73.582;2023-04-19T21:46:03;21.70;50.20
20005;DHT22;69160;45.498;-73.582;2023-04-19T21:48:30;21.70;49.70
20005;DHT22;69160;45.498;-73.582;2023-04-19T21:50:56;21.70;49.70
20005;DHT22;69160;45.498;-73.582;2023-04-19T21:53:23;21.70;49.50
20005;DHT22;69160;45.498;-73.582;2023-04-19T21:55:49;21.70;49.40
20005;DHT22;69160;45.498;-73.582;2023-04-19T21:58:16;21.70;49.40
20005;DHT22;69160;45.498;-73.582;2023-04-19T22:00:43;21.70;49.40
20005;DHT22;69160;45.498;-73.582;2023-04-19T22:03:10;21.70;49.30
20005;DHT22;69160;45.498;-73.582;2023-04-19T22:05:36;21.70;49.40
20005;DHT22;69160;45.498;-73.582;2023-04-19T22:08:03;21.70;49.50
20005;DHT22;69160;45.498;-73.582;2023-04-19T22:10:30;21.70;49.20
20005;DHT22;69160;45.498;-73.582;2023-04-19T22:12:59;21.70;49.10
20005;DHT22;69160;45.498;-73.582;2023-04-19T22:15:27;21.70;49.40
20005;DHT22;69160;45.498;-73.582;2023-04-19T22:17:53;21.70;49.10
20005;DHT22;69160;45.498;-73.582;2023-04-19T22:20:19;21.70;49.00
20005;DHT22;69160;45.498;-73.582;2023-04-19T22:22:45;21.70;49.10
20005;DHT22;69160;45.498;-73.582;2023-04-19T22:25:12;21.70;48.90
20005;DHT22;69160;45.498;-73.582;2023-04-19T22:27:38;21.70;49.10
20005;DHT22;69160;45.498;-73.582;2023-04-19T22:30:04;21.60;49.40
20005;DHT22;69160;45.498;-73.582;2023-04-19T22:32:31;21.60;48.80
20005;DHT22;69160;45.498;-73.582;2023-04-19T22:34:57;21.60;48.90
20005;DHT22;69160;45.498;-73.582;2023-04-19T22:37:23;21.60;48.70
20005;DHT22;69160;45.498;-73.582;2023-04-19T22:39:49;21.60;48.80
20005;DHT22;69160;45.498;-73.582;2023-04-19T22:42:15;21.70;48.80
20005;DHT22;69160;45.498;-73.582;2023-04-19T22:44:42;21.60;48.60
20005;DHT22;69160;45.498;-73.582;2023-04-19T22:47:08;21.60;48.70
20005;DHT22;69160;45.498;-73.582;2023-04-19T22:49:34;21.50;48.50
20005;DHT22;69160;45.498;-73.582;2023-04-19T22:52:00;21.60;48.60
20005;DHT22;69160;45.498;-73.582;2023-04-19T22:54:27;21.60;48.50
20005;DHT22;69160;45.498;-73.582;2023-04-19T22:56:53;21.60;48.50
20005;DHT22;69160;45.498;-73.582;2023-04-19T22:59:19;21.60;49.00
20005;DHT22;69160;45.498;-73.582;2023-04-19T23:01:46;21.60;48.50
20005;DHT22;69160;45.498;-73.582;2023-04-19T23:04:15;21.50;48.40
20005;DHT22;69160;45.498;-73.582;2023-04-19T23:06:43;21.60;48.40
20005;DHT22;69160;45.498;-73.582;2023-04-19T23:09:09;21.60;48.40
20005;DHT22;69160;45.498;-73.582;2023-04-19T23:11:38;21.50;48.20
20005;DHT22;69160;45.498;-73.582;2023-04-19T23:14:08;21.50;48.30
20005;DHT22;69160;45.498;-73.582;2023-04-19T23:16:36;21.60;48.30
20005;DHT22;69160;45.498;-73.582;2023-04-19T23:19:06;21.60;48.30
20005;DHT22;69160;45.498;-73.582;2023-04-19T23:21:32;21.60;48.40
20005;DHT22;69160;45.498;-73.582;2023-04-19T23:23:59;21.60;48.20
20005;DHT22;69160;45.498;-73.582;2023-04-19T23:26:25;21.60;48.20
20005;DHT22;69160;45.498;-73.582;2023-04-19T23:28:51;21.60;48.30
20005;DHT22;69160;45.498;-73.582;2023-04-19T23:31:18;21.60;48.20
20005;DHT22;69160;45.498;-73.582;2023-04-19T23:33:44;21.70;48.40